sensor_id;sensor_type;location;lat;lon;timestamp;pressure;altitude;pressure_sealevel;temperature
22828;BMP180;11580;52.562;13.418;2022-08-01T00:02:27;100398.00;;;25.40
22828;BMP180;11580;52.562;13.418;2022-08-01T00:04:54;100410.00;;;25.40
22828;BMP180;11580;52.562;13.418;2022-08-01T00:07:21;100424.00;;;25.40
22828;BMP180;11580;52.562;13.418;2022-08-01T00:09:50;100426.00;;;25.40
22828;BMP180;11580;52.562;13.418;2022-08-01T00:12:17;100425.00;;;25.30
22828;BMP180;11580;52.562;13.418;2022-08-01T00:14:44;100428.00;;;25.30
22828;BMP180;11580;52.562;13.418;2022-08-01T00:17:12;100428.00;;;25.30
22828;BMP180;11580;52.562;13.418;2022-08-01T00:19:39;100434.00;;;25.30
22828;BMP180;11580;52.562;13.418;2022-08-01T00:22:06;100438.00;;;25.30
22828;BMP180;11580;52.562;13.418;2022-08-01T00:24:34;100436.00;;;25.20
22828;BMP180;11580;52.562;13.418;2022-08-01T00:27:03;100440.00;;;25.20
22828;BMP180;11580;52.562;13.418;2022-08-01T00:29:30;100437.00;;;25.10
22828;BMP180;11580;52.562;13.418;2022-08-01T00:31:57;100437.00;;;25.10
22828;BMP180;11580;52.562;13.418;2022-08-01T00:34:24;100441.00;;;25.00
22828;BMP180;11580;52.562;13.418;2022-08-01T00:36:52;100426.00;;;25.00
22828;BMP180;11580;52.562;13.418;2022-08-01T00:39:19;100425.00;;;24.90
22828;BMP180;11580;52.562;13.418;2022-08-01T00:41:46;100425.00;;;24.90
22828;BMP180;11580;52.562;13.418;2022-08-01T00:44:15;100435.00;;;24.80
22828;BMP180;11580;52.562;13.418;2022-08-01T00:46:42;100425.00;;;24.70
22828;BMP180;11580;52.562;13.418;2022-08-01T00:49:10;100426.00;;;24.60
22828;BMP180;11580;52.562;13.418;2022-08-01T00:51:38;100415.00;;;24.60
22828;BMP180;11580;52.562;13.418;2022-08-01T00:54:05;100425.00;;;24.50
22828;BMP180;11580;52.562;13.418;2022-08-01T00:56:33;100417.00;;;24.50
22828;BMP180;11580;52.562;13.418;2022-08-01T00:59:00;100417.00;;;24.40
22828;BMP180;11580;52.562;13.418;2022-08-01T01:01:31;100408.00;;;24.40
22828;BMP180;11580;52.562;13.418;2022-08-01T01:03:58;100410.00;;;24.40
22828;BMP180;11580;52.562;13.418;2022-08-01T01:06:35;100401.00;;;24.40
22828;BMP180;11580;52.562;13.418;2022-08-01T01:09:21;100395.00;;;24.40
22828;BMP180;11580;52.562;13.418;2022-08-01T01:12:02;100399.00;;;24.40
22828;BMP180;11580;52.562;13.418;2022-08-01T01:14:37;100397.00;;;24.40
22828;BMP180;11580;52.562;13.418;2022-08-01T01:17:15;100390.00;;;24.40
22828;BMP180;11580;52.562;13.418;2022-08-01T01:19:48;100397.00;;;24.40
22828;BMP180;11580;52.562;13.418;2022-08-01T01:22:36;100393.00;;;24.40
22828;BMP180;11580;52.562;13.418;2022-08-01T01:25:30;100385.00;;;24.30
22828;BMP180;11580;52.562;13.418;2022-08-01T01:28:10;100396.00;;;24.30
22828;BMP180;11580;52.562;13.418;2022-08-01T01:30:46;100397.00;;;24.30
22828;BMP180;11580;52.562;13.418;2022-08-01T01:33:17;100405.00;;;24.30
22828;BMP180;11580;52.562;13.418;2022-08-01T01:35:51;100397.00;;;24.30
22828;BMP180;11580;52.562;13.418;2022-08-01T01:38:24;100396.00;;;24.30
22828;BMP180;11580;52.562;13.418;2022-08-01T01:40:53;100389.00;;;24.30
22828;BMP180;11580;52.562;13.418;2022-08-01T01:43:23;100389.00;;;24.30
22828;BMP180;11580;52.562;13.418;2022-08-01T01:45:54;100388.00;;;24.30
22828;BMP180;11580;52.562;13.418;2022-08-01T01:48:24;100388.00;;;24.30
22828;BMP180;11580;52.562;13.418;2022-08-01T01:50:53;100373.00;;;24.30
22828;BMP180;11580;52.562;13.418;2022-08-01T01:53:23;100389.00;;;24.30
22828;BMP180;11580;52.562;13.418;2022-08-01T01:55:55;100377.00;;;24.30
22828;BMP180;11580;52.562;13.418;2022-08-01T01:58:26;100382.00;;;24.30
22828;BMP180;11580;52.562;13.418;2022-08-01T02:00:58;100381.00;;;24.30
22828;BMP180;11580;52.562;13.418;2022-08-01T02:03:28;100382.00;;;24.20
22828;BMP180;11580;52.562;13.418;2022-08-01T02:05:57;100374.00;;;24.20
22828;BMP180;11580;52.562;13.418;2022-08-01T02:08:29;100383.00;;;24.20
22828;BMP180;11580;52.562;13.418;2022-08-01T02:11:01;100377.00;;;24.20
22828;BMP180;11580;52.562;13.418;2022-08-01T02:13:52;100379.00;;;24.10
22828;BMP180;11580;52.562;13.418;2022-08-01T02:16:27;100379.00;;;24.00
22828;BMP180;11580;52.562;13.418;2022-08-01T02:18:55;100376.00;;;24.00
22828;BMP180;11580;52.562;13.418;2022-08-01T02:21:28;100382.00;;;23.90
22828;BMP180;11580;52.562;13.418;2022-08-01T02:24:06;100379.00;;;23.80
22828;BMP180;11580;52.562;13.418;2022-08-01T02:26:38;100363.00;;;23.80
22828;BMP180;11580;52.562;13.418;2022-08-01T02:29:10;100386.00;;;23.70
22828;BMP180;11580;52.562;13.418;2022-08-01T02:31:44;100383.00;;;23.70
22828;BMP180;11580;52.562;13.418;2022-08-01T02:34:17;100378.00;;;23.70
22828;BMP180;11580;52.562;13.418;2022-08-01T02:36:47;100382.00;;;23.60
22828;BMP180;11580;52.562;13.418;2022-08-01T02:39:19;100374.00;;;23.60
22828;BMP180;11580;52.562;13.418;2022-08-01T02:41:55;100376.00;;;23.50
22828;BMP180;11580;52.562;13.418;2022-08-01T02:44:30;100376.00;;;23.50
22828;BMP180;11580;52.562;13.418;2022-08-01T02:47:01;100381.00;;;23.50
22828;BMP180;11580;52.562;13.418;2022-08-01T02:49:32;100350.00;;;23.40
22828;BMP180;11580;52.562;13.418;2022-08-01T02:52:04;100378.00;;;23.40
22828;BMP180;11580;52.562;13.418;2022-08-01T02:54:34;100375.00;;;23.40
22828;BMP180;11580;52.562;13.418;2022-08-01T02:57:03;100378.00;;;23.30
22828;BMP180;11580;52.562;13.418;2022-08-01T02:59:33;100382.00;;;23.30
22828;BMP180;11580;52.562;13.418;2022-08-01T03:02:05;100371.00;;;23.30
22828;BMP180;11580;52.562;13.418;2022-08-01T03:04:37;100375.00;;;23.30
22828;BMP180;11580;52.562;13.418;2022-08-01T03:07:08;100378.00;;;23.20
22828;BMP180;11580;52.562;13.418;2022-08-01T03:09:40;100379.00;;;23.20
22828;BMP180;11580;52.562;13.418;2022-08-01T03:12:13;100380.00;;;23.20
22828;BMP180;11580;52.562;13.418;2022-08-01T03:14:44;100387.00;;;23.10
22828;BMP180;11580;52.562;13.418;2022-08-01T03:17:16;100379.00;;;23.10
22828;BMP180;11580;52.562;13.418;2022-08-01T03:19:46;100380.00;;;23.10
22828;BMP180;11580;52.562;13.418;2022-08-01T03:22:15;100384.00;;;23.20
22828;BMP180;11580;52.562;13.418;2022-08-01T03:24:46;100389.00;;;23.20
22828;BMP180;11580;52.562;13.418;2022-08-01T03:27:15;100388.00;;;23.20
22828;BMP180;11580;52.562;13.418;2022-08-01T03:29:45;100380.00;;;23.30
22828;BMP180;11580;52.562;13.418;2022-08-01T03:32:15;100387.00;;;23.30
22828;BMP180;11580;52.562;13.418;2022-08-01T03:34:43;100394.00;;;23.30
22828;BMP180;11580;52.562;13.418;2022-08-01T03:37:21;100395.00;;;23.40
22828;BMP180;11580;52.562;13.418;2022-08-01T03:39:57;100394.00;;;23.40
22828;BMP180;11580;52.562;13.418;2022-08-01T03:42:31;100398.00;;;23.40
22828;BMP180;11580;52.562;13.418;2022-08-01T03:45:04;100391.00;;;23.40
22828;BMP180;11580;52.562;13.418;2022-08-01T03:47:35;100396.00;;;23.50
22828;BMP180;11580;52.562;13.418;2022-08-01T03:50:05;100400.00;;;23.60
22828;BMP180;11580;52.562;13.418;2022-08-01T03:52:36;100403.00;;;23.60
22828;BMP180;11580;52.562;13.418;2022-08-01T03:55:07;100401.00;;;23.70
22828;BMP180;11580;52.562;13.418;2022-08-01T03:57:35;100401.00;;;23.80
22828;BMP180;11580;52.562;13.418;2022-08-01T04:00:06;100397.00;;;23.90
22828;BMP180;11580;52.562;13.418;2022-08-01T04:02:42;100399.00;;;24.10
22828;BMP180;11580;52.562;13.418;2022-08-01T04:05:10;100397.00;;;24.20
22828;BMP180;11580;52.562;13.418;2022-08-01T04:07:37;100397.00;;;24.40
22828;BMP180;11580;52.562;13.418;2022-08-01T04:10:06;100394.00;;;24.50
22828;BMP180;11580;52.562;13.418;2022-08-01T04:12:34;100405.00;;;24.50
22828;BMP180;11580;52.562;13.418;2022-08-01T04:15:02;100396.00;;;24.50
22828;BMP180;11580;52.562;13.418;2022-08-01T04:17:30;100397.00;;;24.50
22828;BMP180;11580;52.562;13.418;2022-08-01T04:19:58;100403.00;;;24.50
22828;BMP180;11580;52.562;13.418;2022-08-01T04:22:26;100406.00;;;24.50
22828;BMP180;11580;52.562;13.418;2022-08-01T04:24:57;100398.00;;;24.50
22828;BMP180;11580;52.562;13.418;2022-08-01T04:27:30;100397.00;;;24.50
22828;BMP180;11580;52.562;13.418;2022-08-01T04:30:00;100401.00;;;24.50
22828;BMP180;11580;52.562;13.418;2022-08-01T04:32:33;100408.00;;;24.50
22828;BMP180;11580;52.562;13.418;2022-08-01T04:35:06;100409.00;;;24.60
22828;BMP180;11580;52.562;13.418;2022-08-01T04:37:35;100401.00;;;24.50
22828;BMP180;11580;52.562;13.418;2022-08-01T04:40:04;100413.00;;;24.50
22828;BMP180;11580;52.562;13.418;2022-08-01T04:42:33;100416.00;;;24.50
22828;BMP180;11580;52.562;13.418;2022-08-01T04:45:01;100420.00;;;24.50
22828;BMP180;11580;52.562;13.418;2022-08-01T04:47:30;100424.00;;;24.60
22828;BMP180;11580;52.562;13.418;2022-08-01T04:49:58;100420.00;;;24.60
22828;BMP180;11580;52.562;13.418;2022-08-01T04:52:34;100428.00;;;24.60
22828;BMP180;11580;52.562;13.418;2022-08-01T04:55:03;100426.00;;;24.60
22828;BMP180;11580;52.562;13.418;2022-08-01T04:57:34;100424.00;;;24.60
22828;BMP180;11580;52.562;13.418;2022-08-01T05:00:03;100426.00;;;24.70
22828;BMP180;11580;52.562;13.418;2022-08-01T05:02:32;100426.00;;;24.70
22828;BMP180;11580;52.562;13.418;2022-08-01T05:05:00;100433.00;;;24.70
22828;BMP180;11580;52.562;13.418;2022-08-01T05:07:27;100432.00;;;24.70
22828;BMP180;11580;52.562;13.418;2022-08-01T05:09:55;100430.00;;;24.70
22828;BMP180;11580;52.562;13.418;2022-08-01T05:12:23;100433.00;;;24.70
22828;BMP180;11580;52.562;13.418;2022-08-01T05:14:50;100438.00;;;24.70
22828;BMP180;11580;52.562;13.418;2022-08-01T05:17:17;100433.00;;;24.70
22828;BMP180;11580;52.562;13.418;2022-08-01T05:19:45;100442.00;;;24.70
22828;BMP180;11580;52.562;13.418;2022-08-01T05:22:12;100435.00;;;24.70
22828;BMP180;11580;52.562;13.418;2022-08-01T05:24:40;100445.00;;;24.60
22828;BMP180;11580;52.562;13.418;2022-08-01T05:27:09;100438.00;;;24.60
22828;BMP180;11580;52.562;13.418;2022-08-01T05:29:37;100433.00;;;24.50
22828;BMP180;11580;52.562;13.418;2022-08-01T05:32:04;100435.00;;;24.50
22828;BMP180;11580;52.562;13.418;2022-08-01T05:34:32;100436.00;;;24.50
22828;BMP180;11580;52.562;13.418;2022-08-01T05:36:59;100431.00;;;24.40
22828;BMP180;11580;52.562;13.418;2022-08-01T05:39:27;100430.00;;;24.40
22828;BMP180;11580;52.562;13.418;2022-08-01T05:41:54;100435.00;;;24.40
22828;BMP180;11580;52.562;13.418;2022-08-01T05:44:23;100434.00;;;24.40
22828;BMP180;11580;52.562;13.418;2022-08-01T05:46:51;100437.00;;;24.40
22828;BMP180;11580;52.562;13.418;2022-08-01T05:49:18;100431.00;;;24.50
22828;BMP180;11580;52.562;13.418;2022-08-01T05:51:45;100440.00;;;24.60
22828;BMP180;11580;52.562;13.418;2022-08-01T05:54:12;100436.00;;;24.60
22828;BMP180;11580;52.562;13.418;2022-08-01T05:56:40;100438.00;;;24.60
22828;BMP180;11580;52.562;13.418;2022-08-01T05:59:07;100441.00;;;24.70
22828;BMP180;11580;52.562;13.418;2022-08-01T06:01:36;100448.00;;;24.80
22828;BMP180;11580;52.562;13.418;2022-08-01T06:04:03;100451.00;;;24.80
22828;BMP180;11580;52.562;13.418;2022-08-01T06:06:31;100454.00;;;24.90
22828;BMP180;11580;52.562;13.418;2022-08-01T06:08:58;100460.00;;;25.00
22828;BMP180;11580;52.562;13.418;2022-08-01T06:11:25;100454.00;;;25.00
22828;BMP180;11580;52.562;13.418;2022-08-01T06:13:52;100458.00;;;25.00
22828;BMP180;11580;52.562;13.418;2022-08-01T06:16:20;100457.00;;;25.00
22828;BMP180;11580;52.562;13.418;2022-08-01T06:18:48;100464.00;;;25.00
22828;BMP180;11580;52.562;13.418;2022-08-01T06:21:16;100466.00;;;25.00
22828;BMP180;11580;52.562;13.418;2022-08-01T06:23:43;100467.00;;;25.00
22828;BMP180;11580;52.562;13.418;2022-08-01T06:26:10;100465.00;;;25.00
22828;BMP180;11580;52.562;13.418;2022-08-01T06:28:38;100469.00;;;25.00
22828;BMP180;11580;52.562;13.418;2022-08-01T06:31:05;100468.00;;;25.00
22828;BMP180;11580;52.562;13.418;2022-08-01T06:33:33;100467.00;;;25.00
22828;BMP180;11580;52.562;13.418;2022-08-01T06:36:02;100474.00;;;25.00
22828;BMP180;11580;52.562;13.418;2022-08-01T06:38:29;100471.00;;;25.10
22828;BMP180;11580;52.562;13.418;2022-08-01T06:40:56;100467.00;;;25.20
22828;BMP180;11580;52.562;13.418;2022-08-01T06:43:23;100465.00;;;25.30
22828;BMP180;11580;52.562;13.418;2022-08-01T06:45:51;100471.00;;;25.40
22828;BMP180;11580;52.562;13.418;2022-08-01T06:48:18;100474.00;;;25.50
22828;BMP180;11580;52.562;13.418;2022-08-01T06:50:45;100474.00;;;25.60
22828;BMP180;11580;52.562;13.418;2022-08-01T06:53:14;100469.00;;;25.70
22828;BMP180;11580;52.562;13.418;2022-08-01T06:55:41;100476.00;;;25.80
22828;BMP180;11580;52.562;13.418;2022-08-01T06:58:08;100472.00;;;25.90
22828;BMP180;11580;52.562;13.418;2022-08-01T07:00:35;100476.00;;;26.00
22828;BMP180;11580;52.562;13.418;2022-08-01T07:03:03;100482.00;;;26.00
22828;BMP180;11580;52.562;13.418;2022-08-01T07:05:30;100480.00;;;26.10
22828;BMP180;11580;52.562;13.418;2022-08-01T07:07:57;100478.00;;;26.20
22828;BMP180;11580;52.562;13.418;2022-08-01T07:10:26;100489.00;;;26.20
22828;BMP180;11580;52.562;13.418;2022-08-01T07:12:53;100479.00;;;26.20
22828;BMP180;11580;52.562;13.418;2022-08-01T07:15:21;100489.00;;;26.20
22828;BMP180;11580;52.562;13.418;2022-08-01T07:17:52;100478.00;;;26.10
22828;BMP180;11580;52.562;13.418;2022-08-01T07:20:20;100482.00;;;26.00
22828;BMP180;11580;52.562;13.418;2022-08-01T07:22:47;100480.00;;;26.00
22828;BMP180;11580;52.562;13.418;2022-08-01T07:25:14;100486.00;;;25.90
22828;BMP180;11580;52.562;13.418;2022-08-01T07:27:43;100490.00;;;25.80
22828;BMP180;11580;52.562;13.418;2022-08-01T07:30:12;100488.00;;;25.80
22828;BMP180;11580;52.562;13.418;2022-08-01T07:32:40;100485.00;;;25.70
22828;BMP180;11580;52.562;13.418;2022-08-01T07:35:08;100487.00;;;25.60
22828;BMP180;11580;52.562;13.418;2022-08-01T07:37:35;100488.00;;;25.60
22828;BMP180;11580;52.562;13.418;2022-08-01T07:40:04;100490.00;;;25.60
22828;BMP180;11580;52.562;13.418;2022-08-01T07:42:32;100494.00;;;25.60
22828;BMP180;11580;52.562;13.418;2022-08-01T07:45:00;100496.00;;;25.60
22828;BMP180;11580;52.562;13.418;2022-08-01T07:47:28;100500.00;;;25.60
22828;BMP180;11580;52.562;13.418;2022-08-01T07:49:59;100498.00;;;25.70
22828;BMP180;11580;52.562;13.418;2022-08-01T07:52:27;100502.00;;;25.90
22828;BMP180;11580;52.562;13.418;2022-08-01T07:54:56;100509.00;;;26.00
22828;BMP180;11580;52.562;13.418;2022-08-01T07:57:23;100511.00;;;26.20
22828;BMP180;11580;52.562;13.418;2022-08-01T07:59:51;100516.00;;;26.40
22828;BMP180;11580;52.562;13.418;2022-08-01T08:02:20;100512.00;;;26.50
22828;BMP180;11580;52.562;13.418;2022-08-01T08:04:47;100515.00;;;26.60
22828;BMP180;11580;52.562;13.418;2022-08-01T08:07:14;100501.00;;;26.60
22828;BMP180;11580;52.562;13.418;2022-08-01T08:09:42;100517.00;;;26.60
22828;BMP180;11580;52.562;13.418;2022-08-01T08:12:09;100531.00;;;26.50
22828;BMP180;11580;52.562;13.418;2022-08-01T08:14:37;100527.00;;;26.40
22828;BMP180;11580;52.562;13.418;2022-08-01T08:17:06;100524.00;;;26.30
22828;BMP180;11580;52.562;13.418;2022-08-01T08:19:34;100522.00;;;26.20
22828;BMP180;11580;52.562;13.418;2022-08-01T08:22:05;100517.00;;;26.10
22828;BMP180;11580;52.562;13.418;2022-08-01T08:24:32;100521.00;;;26.00
22828;BMP180;11580;52.562;13.418;2022-08-01T08:27:01;100523.00;;;26.00
22828;BMP180;11580;52.562;13.418;2022-08-01T08:29:31;100522.00;;;26.00
22828;BMP180;11580;52.562;13.418;2022-08-01T08:32:00;100523.00;;;26.10
22828;BMP180;11580;52.562;13.418;2022-08-01T08:34:28;100525.00;;;26.30
22828;BMP180;11580;52.562;13.418;2022-08-01T08:36:58;100531.00;;;26.50
22828;BMP180;11580;52.562;13.418;2022-08-01T08:39:26;100535.00;;;26.80
22828;BMP180;11580;52.562;13.418;2022-08-01T08:41:58;100527.00;;;27.00
22828;BMP180;11580;52.562;13.418;2022-08-01T08:44:26;100534.00;;;27.30
22828;BMP180;11580;52.562;13.418;2022-08-01T08:46:54;100537.00;;;27.40
22828;BMP180;11580;52.562;13.418;2022-08-01T08:49:27;100550.00;;;27.50
22828;BMP180;11580;52.562;13.418;2022-08-01T08:52:00;100538.00;;;27.50
22828;BMP180;11580;52.562;13.418;2022-08-01T08:54:30;100552.00;;;27.50
22828;BMP180;11580;52.562;13.418;2022-08-01T08:57:02;100542.00;;;27.60
22828;BMP180;11580;52.562;13.418;2022-08-01T08:59:29;100538.00;;;27.60
22828;BMP180;11580;52.562;13.418;2022-08-01T09:01:58;100537.00;;;27.80
22828;BMP180;11580;52.562;13.418;2022-08-01T09:04:26;100544.00;;;27.90
22828;BMP180;11580;52.562;13.418;2022-08-01T09:06:54;100543.00;;;28.10
22828;BMP180;11580;52.562;13.418;2022-08-01T09:09:23;100543.00;;;28.20
22828;BMP180;11580;52.562;13.418;2022-08-01T09:11:50;100551.00;;;28.40
22828;BMP180;11580;52.562;13.418;2022-08-01T09:14:19;100556.00;;;28.60
22828;BMP180;11580;52.562;13.418;2022-08-01T09:17:00;100554.00;;;28.70
22828;BMP180;11580;52.562;13.418;2022-08-01T09:19:36;100550.00;;;28.80
22828;BMP180;11580;52.562;13.418;2022-08-01T09:22:05;100558.00;;;28.80
22828;BMP180;11580;52.562;13.418;2022-08-01T09:24:35;100563.00;;;28.90
22828;BMP180;11580;52.562;13.418;2022-08-01T09:27:16;100561.00;;;29.00
22828;BMP180;11580;52.562;13.418;2022-08-01T09:29:44;100571.00;;;29.00
22828;BMP180;11580;52.562;13.418;2022-08-01T09:32:12;100562.00;;;28.90
22828;BMP180;11580;52.562;13.418;2022-08-01T09:34:39;100580.00;;;28.90
22828;BMP180;11580;52.562;13.418;2022-08-01T09:37:06;100582.00;;;28.80
22828;BMP180;11580;52.562;13.418;2022-08-01T09:39:37;100577.00;;;28.70
22828;BMP180;11580;52.562;13.418;2022-08-01T09:42:23;100580.00;;;28.60
22828;BMP180;11580;52.562;13.418;2022-08-01T09:44:51;100578.00;;;28.40
22828;BMP180;11580;52.562;13.418;2022-08-01T09:47:19;100587.00;;;28.30
22828;BMP180;11580;52.562;13.418;2022-08-01T09:49:55;100586.00;;;28.10
22828;BMP180;11580;52.562;13.418;2022-08-01T09:52:27;100593.00;;;27.90
22828;BMP180;11580;52.562;13.418;2022-08-01T09:54:58;100593.00;;;27.80
22828;BMP180;11580;52.562;13.418;2022-08-01T09:57:26;100604.00;;;27.70
22828;BMP180;11580;52.562;13.418;2022-08-01T09:59:57;100602.00;;;27.60
22828;BMP180;11580;52.562;13.418;2022-08-01T10:02:31;100600.00;;;27.50
22828;BMP180;11580;52.562;13.418;2022-08-01T10:05:00;100609.00;;;27.40
22828;BMP180;11580;52.562;13.418;2022-08-01T10:07:27;100608.00;;;27.30
22828;BMP180;11580;52.562;13.418;2022-08-01T10:10:09;100606.00;;;27.20
22828;BMP180;11580;52.562;13.418;2022-08-01T10:12:37;100604.00;;;27.20
22828;BMP180;11580;52.562;13.418;2022-08-01T10:15:07;100610.00;;;27.20
22828;BMP180;11580;52.562;13.418;2022-08-01T10:17:36;100609.00;;;27.10
22828;BMP180;11580;52.562;13.418;2022-08-01T10:20:08;100615.00;;;27.10
22828;BMP180;11580;52.562;13.418;2022-08-01T10:22:36;100612.00;;;27.10
22828;BMP180;11580;52.562;13.418;2022-08-01T10:25:06;100602.00;;;27.00
22828;BMP180;11580;52.562;13.418;2022-08-01T10:27:36;100593.00;;;27.00
22828;BMP180;11580;52.562;13.418;2022-08-01T10:30:06;100609.00;;;27.00
22828;BMP180;11580;52.562;13.418;2022-08-01T10:32:36;100607.00;;;27.00
22828;BMP180;11580;52.562;13.418;2022-08-01T10:35:06;100610.00;;;27.00
22828;BMP180;11580;52.562;13.418;2022-08-01T10:37:34;100617.00;;;27.10
22828;BMP180;11580;52.562;13.418;2022-08-01T10:40:05;100620.00;;;27.20
22828;BMP180;11580;52.562;13.418;2022-08-01T10:42:34;100618.00;;;27.30
22828;BMP180;11580;52.562;13.418;2022-08-01T10:45:02;100607.00;;;27.50
22828;BMP180;11580;52.562;13.418;2022-08-01T10:47:39;100618.00;;;27.60
22828;BMP180;11580;52.562;13.418;2022-08-01T10:50:15;100618.00;;;27.80
22828;BMP180;11580;52.562;13.418;2022-08-01T10:53:10;100626.00;;;27.90
22828;BMP180;11580;52.562;13.418;2022-08-01T10:55:52;100625.00;;;28.00
22828;BMP180;11580;52.562;13.418;2022-08-01T10:58:24;100615.00;;;27.90
22828;BMP180;11580;52.562;13.418;2022-08-01T11:01:18;100630.00;;;27.90
22828;BMP180;11580;52.562;13.418;2022-08-01T11:04:06;100625.00;;;27.90
22828;BMP180;11580;52.562;13.418;2022-08-01T11:06:48;100624.00;;;27.90
22828;BMP180;11580;52.562;13.418;2022-08-01T11:09:24;100634.00;;;28.00
22828;BMP180;11580;52.562;13.418;2022-08-01T11:12:03;100647.00;;;28.00
22828;BMP180;11580;52.562;13.418;2022-08-01T11:14:34;100640.00;;;28.00
22828;BMP180;11580;52.562;13.418;2022-08-01T11:17:32;100649.00;;;28.00
22828;BMP180;11580;52.562;13.418;2022-08-01T11:20:08;100645.00;;;27.90
22828;BMP180;11580;52.562;13.418;2022-08-01T11:23:18;100649.00;;;27.60
22828;BMP180;11580;52.562;13.418;2022-08-01T11:26:20;100664.00;;;27.20
22828;BMP180;11580;52.562;13.418;2022-08-01T11:29:16;100669.00;;;26.80
22828;BMP180;11580;52.562;13.418;2022-08-01T11:31:44;100664.00;;;26.50
22828;BMP180;11580;52.562;13.418;2022-08-01T11:34:12;100661.00;;;26.30
22828;BMP180;11580;52.562;13.418;2022-08-01T11:36:39;100662.00;;;26.10
22828;BMP180;11580;52.562;13.418;2022-08-01T11:39:17;100657.00;;;26.00
22828;BMP180;11580;52.562;13.418;2022-08-01T11:41:47;100665.00;;;25.90
22828;BMP180;11580;52.562;13.418;2022-08-01T11:44:19;100663.00;;;26.00
22828;BMP180;11580;52.562;13.418;2022-08-01T11:46:57;100656.00;;;26.10
22828;BMP180;11580;52.562;13.418;2022-08-01T11:49:32;100660.00;;;26.30
22828;BMP180;11580;52.562;13.418;2022-08-01T11:52:04;100665.00;;;26.60
22828;BMP180;11580;52.562;13.418;2022-08-01T11:54:37;100654.00;;;26.90
22828;BMP180;11580;52.562;13.418;2022-08-01T11:57:07;100664.00;;;27.10
22828;BMP180;11580;52.562;13.418;2022-08-01T11:59:43;100660.00;;;27.40
22828;BMP180;11580;52.562;13.418;2022-08-01T12:02:22;100665.00;;;27.70
22828;BMP180;11580;52.562;13.418;2022-08-01T12:04:54;100664.00;;;27.90
22828;BMP180;11580;52.562;13.418;2022-08-01T12:07:23;100664.00;;;28.20
22828;BMP180;11580;52.562;13.418;2022-08-01T12:10:00;100666.00;;;28.40
22828;BMP180;11580;52.562;13.418;2022-08-01T12:12:29;100667.00;;;28.50
22828;BMP180;11580;52.562;13.418;2022-08-01T12:15:00;100661.00;;;28.60
22828;BMP180;11580;52.562;13.418;2022-08-01T12:17:37;100670.00;;;28.60
22828;BMP180;11580;52.562;13.418;2022-08-01T12:20:08;100679.00;;;28.50
22828;BMP180;11580;52.562;13.418;2022-08-01T12:22:36;100676.00;;;28.30
22828;BMP180;11580;52.562;13.418;2022-08-01T12:25:09;100659.00;;;28.10
22828;BMP180;11580;52.562;13.418;2022-08-01T12:27:39;100674.00;;;27.90
22828;BMP180;11580;52.562;13.418;2022-08-01T12:30:11;100673.00;;;27.70
22828;BMP180;11580;52.562;13.418;2022-08-01T12:32:42;100675.00;;;27.70
22828;BMP180;11580;52.562;13.418;2022-08-01T12:35:13;100676.00;;;27.60
22828;BMP180;11580;52.562;13.418;2022-08-01T12:37:42;100670.00;;;27.60
22828;BMP180;11580;52.562;13.418;2022-08-01T12:40:13;100670.00;;;27.70
22828;BMP180;11580;52.562;13.418;2022-08-01T12:42:42;100658.00;;;27.80
22828;BMP180;11580;52.562;13.418;2022-08-01T12:45:15;100665.00;;;27.90
22828;BMP180;11580;52.562;13.418;2022-08-01T12:47:43;100668.00;;;28.10
22828;BMP180;11580;52.562;13.418;2022-08-01T12:50:13;100670.00;;;28.30
22828;BMP180;11580;52.562;13.418;2022-08-01T12:52:42;100661.00;;;28.40
22828;BMP180;11580;52.562;13.418;2022-08-01T12:55:13;100664.00;;;28.60
22828;BMP180;11580;52.562;13.418;2022-08-01T12:57:43;100664.00;;;28.80
22828;BMP180;11580;52.562;13.418;2022-08-01T13:00:18;100665.00;;;29.00
22828;BMP180;11580;52.562;13.418;2022-08-01T13:02:48;100668.00;;;29.10
22828;BMP180;11580;52.562;13.418;2022-08-01T13:05:16;100675.00;;;29.10
22828;BMP180;11580;52.562;13.418;2022-08-01T13:07:47;100666.00;;;29.10
22828;BMP180;11580;52.562;13.418;2022-08-01T13:10:26;100675.00;;;29.00
22828;BMP180;11580;52.562;13.418;2022-08-01T13:12:56;100674.00;;;28.80
22828;BMP180;11580;52.562;13.418;2022-08-01T13:15:30;100673.00;;;28.70
22828;BMP180;11580;52.562;13.418;2022-08-01T13:18:00;100676.00;;;28.60
22828;BMP180;11580;52.562;13.418;2022-08-01T13:20:31;100679.00;;;28.50
22828;BMP180;11580;52.562;13.418;2022-08-01T13:23:14;100681.00;;;28.50
22828;BMP180;11580;52.562;13.418;2022-08-01T13:25:50;100655.00;;;28.40
22828;BMP180;11580;52.562;13.418;2022-08-01T13:28:21;100670.00;;;28.30
22828;BMP180;11580;52.562;13.418;2022-08-01T13:30:59;100679.00;;;28.30
22828;BMP180;11580;52.562;13.418;2022-08-01T13:33:40;100674.00;;;28.20
22828;BMP180;11580;52.562;13.418;2022-08-01T13:36:08;100677.00;;;28.10
22828;BMP180;11580;52.562;13.418;2022-08-01T13:38:36;100681.00;;;28.10
22828;BMP180;11580;52.562;13.418;2022-08-01T13:41:21;100691.00;;;27.90
22828;BMP180;11580;52.562;13.418;2022-08-01T13:43:48;100695.00;;;27.80
22828;BMP180;11580;52.562;13.418;2022-08-01T13:46:17;100690.00;;;27.60
22828;BMP180;11580;52.562;13.418;2022-08-01T13:48:45;100686.00;;;27.30
22828;BMP180;11580;52.562;13.418;2022-08-01T13:51:12;100691.00;;;27.00
22828;BMP180;11580;52.562;13.418;2022-08-01T13:53:40;100688.00;;;26.70
22828;BMP180;11580;52.562;13.418;2022-08-01T13:56:07;100695.00;;;26.40
22828;BMP180;11580;52.562;13.418;2022-08-01T13:58:34;100686.00;;;26.20
22828;BMP180;11580;52.562;13.418;2022-08-01T14:01:02;100691.00;;;26.10
22828;BMP180;11580;52.562;13.418;2022-08-01T14:03:31;100688.00;;;26.00
22828;BMP180;11580;52.562;13.418;2022-08-01T14:05:58;100686.00;;;25.90